createdAt,value
2023-01-22T00:01:03.309Z,-0.93
2023-01-22T00:04:09.441Z,-0.89
2023-01-22T00:07:11.633Z,-0.90
2023-01-22T00:10:14.864Z,-0.91
2023-01-22T00:13:16.629Z,-0.92
2023-01-22T00:16:18.693Z,-0.92
2023-01-22T00:19:20.411Z,-0.95
2023-01-22T00:22:22.311Z,-0.93
2023-01-22T00:25:25.458Z,-0.95
2023-01-22T00:28:27.165Z,-0.94
2023-01-22T00:31:28.993Z,-0.94
2023-01-22T00:34:34.991Z,-0.92
2023-01-22T00:37:37.012Z,-0.91
2023-01-22T00:40:40.030Z,-0.87
2023-01-22T00:43:41.822Z,-0.90
2023-01-22T00:46:43.834Z,-0.91
2023-01-22T00:49:49.971Z,-0.93
2023-01-22T00:52:57.938Z,-0.88
2023-01-22T00:56:02.461Z,-0.89
2023-01-22T00:59:10.224Z,-0.90
2023-01-22T01:02:11.937Z,-0.86
2023-01-22T01:05:13.731Z,-0.87
2023-01-22T01:08:15.359Z,-0.85
2023-01-22T01:11:26.365Z,-0.78
2023-01-22T01:14:28.443Z,-0.76
2023-01-22T01:17:31.539Z,-0.74
2023-01-22T01:20:33.240Z,-0.71
2023-01-22T01:23:39.118Z,-0.72
2023-01-22T01:26:42.364Z,-0.68
2023-01-22T01:29:44.017Z,-0.64
2023-01-22T01:32:46.047Z,-0.59
2023-01-22T01:35:47.818Z,-0.58
2023-01-22T01:38:49.942Z,-0.58
2023-01-22T01:41:53.528Z,-0.54
2023-01-22T01:45:28.380Z,-0.52
2023-01-22T01:48:34.447Z,-0.52
2023-01-22T01:51:36.907Z,-0.49
2023-01-22T01:54:40.817Z,-0.47
2023-01-22T01:57:44.948Z,-0.48
2023-01-22T02:00:50.613Z,-0.47
2023-01-22T02:03:53.147Z,-0.46
2023-01-22T02:06:55.493Z,-0.44
2023-01-22T02:09:57.142Z,-0.45
2023-01-22T02:13:04.028Z,-0.42
2023-01-22T02:16:07.690Z,-0.38
2023-01-22T02:19:09.347Z,-0.32
2023-01-22T02:22:14.415Z,-0.32
2023-01-22T02:25:16.725Z,-0.30
2023-01-22T02:28:19.816Z,-0.30
2023-01-22T02:31:22.805Z,-0.27
2023-01-22T02:34:24.914Z,-0.23
2023-01-22T02:37:28.404Z,-0.20
2023-01-22T02:40:31.237Z,-0.24
2023-01-22T02:43:33.545Z,-0.23
2023-01-22T02:46:35.504Z,-0.20
2023-01-22T02:49:37.248Z,-0.20
2023-01-22T02:52:40.427Z,-0.15
2023-01-22T02:55:44.771Z,-0.14
2023-01-22T02:58:46.459Z,-0.24
2023-01-22T03:01:48.203Z,-0.21
2023-01-22T03:04:50.633Z,-0.15
2023-01-22T03:07:53.595Z,-0.16
2023-01-22T03:10:58.003Z,-0.18
2023-01-22T03:14:19.289Z,-0.18
2023-01-22T03:17:39.620Z,-0.18
2023-01-22T03:20:59.986Z,-0.15
2023-01-22T03:24:03.068Z,-0.14
2023-01-22T03:27:05.861Z,-0.12
2023-01-22T03:30:10.639Z,-0.14
2023-01-22T03:33:12.478Z,-0.15
2023-01-22T03:36:15.398Z,-0.11
2023-01-22T03:39:26.542Z,-0.11
2023-01-22T03:42:28.889Z,-0.11
2023-01-22T03:45:32.641Z,-0.09
2023-01-22T03:48:35.533Z,-0.09
2023-01-22T03:51:37.191Z,-0.06
2023-01-22T03:54:40.528Z,-0.08
2023-01-22T03:57:43.668Z,-0.10
2023-01-22T04:00:48.090Z,-0.15
2023-01-22T04:03:50.785Z,-0.07
2023-01-22T04:06:52.487Z,-0.15
2023-01-22T04:09:55.562Z,-0.13
2023-01-22T04:12:57.905Z,-0.17
2023-01-22T04:15:59.683Z,-0.11
2023-01-22T04:19:19.628Z,-0.08
2023-01-22T04:22:21.202Z,-0.07
2023-01-22T04:25:25.896Z,-0.03
2023-01-22T04:28:27.751Z,-0.07
2023-01-22T04:31:30.741Z,-0.07
2023-01-22T04:34:45.030Z,-0.07
2023-01-22T04:37:55.986Z,-0.05
2023-01-22T04:40:59.351Z,-0.05
2023-01-22T04:44:00.994Z,-0.06
2023-01-22T04:47:04.434Z,-0.07
2023-01-22T04:50:06.924Z,-0.08
2023-01-22T04:53:09.593Z,-0.03
2023-01-22T04:56:12.629Z,-0.08
2023-01-22T04:59:14.224Z,-0.07
2023-01-22T05:02:15.986Z,-0.06
2023-01-22T05:05:17.828Z,-0.07
2023-01-22T05:08:19.483Z,-0.06
2023-01-22T05:11:22.475Z,-0.04
2023-01-22T05:14:28.743Z,-0.02
2023-01-22T05:17:30.405Z,-0.03
2023-01-22T05:20:32.098Z,-0.02
2023-01-22T05:23:34.542Z,-0.04
2023-01-22T05:26:38.115Z,-0.05
2023-01-22T05:29:48.058Z,-0.05
2023-01-22T05:32:59.753Z,-0.05
2023-01-22T05:36:03.659Z,-0.03
2023-01-22T05:39:06.255Z,-0.06
2023-01-22T05:42:13.308Z,0.00
2023-01-22T05:45:15.495Z,-0.06
2023-01-22T05:48:39.755Z,-0.01
2023-01-22T05:51:58.013Z,-0.01
2023-01-22T05:55:01.824Z,0.01
2023-01-22T05:58:09.749Z,0.02
2023-01-22T06:01:12.190Z,-0.01
2023-01-22T06:04:16.732Z,0.02
2023-01-22T06:07:18.319Z,0.02
2023-01-22T06:10:20.986Z,0.01
2023-01-22T06:13:24.624Z,0.00
2023-01-22T06:16:29.747Z,-0.01
2023-01-22T06:19:47.764Z,0.05
2023-01-22T06:22:51.924Z,0.02
2023-01-22T06:25:54.646Z,-0.01
2023-01-22T06:28:58.345Z,0.03
2023-01-22T06:32:00.195Z,0.03
2023-01-22T06:35:01.975Z,0.02
2023-01-22T06:38:04.047Z,0.02
2023-01-22T06:41:09.377Z,0.02
2023-01-22T06:44:12.484Z,0.01
2023-01-22T06:47:14.137Z,0.06
2023-01-22T06:50:17.302Z,0.01
2023-01-22T06:53:19.175Z,-0.01
2023-01-22T06:56:20.744Z,0.00
2023-01-22T06:59:23.836Z,0.05
2023-01-22T07:02:25.408Z,0.07
2023-01-22T07:05:27.425Z,0.08
2023-01-22T07:08:30.664Z,0.05
2023-01-22T07:11:32.325Z,0.05
2023-01-22T07:14:37.500Z,0.04
2023-01-22T07:17:39.289Z,0.10
2023-01-22T07:20:42.224Z,0.10
2023-01-22T07:23:43.816Z,0.13
2023-01-22T07:26:46.205Z,0.12
2023-01-22T07:29:50.092Z,0.11
2023-01-22T07:32:51.742Z,0.11
2023-01-22T07:35:54.895Z,0.10
2023-01-22T07:38:56.501Z,0.12
2023-01-22T07:42:01.137Z,0.07
2023-01-22T07:45:08.038Z,0.12
2023-01-22T07:48:10.741Z,0.13
2023-01-22T07:51:12.701Z,0.11
2023-01-22T07:54:15.802Z,0.19
2023-01-22T07:57:18.778Z,0.20
2023-01-22T08:00:22.211Z,0.17
2023-01-22T08:03:23.877Z,0.16
2023-01-22T08:06:25.551Z,0.18
2023-01-22T08:09:27.279Z,0.22
2023-01-22T08:12:28.905Z,0.22
2023-01-22T08:15:32.561Z,0.17
2023-01-22T08:18:34.132Z,0.24
2023-01-22T08:21:35.843Z,0.19
2023-01-22T08:24:37.546Z,0.11
2023-01-22T08:27:39.448Z,0.09
2023-01-22T08:30:46.422Z,0.18
2023-01-22T08:33:48.566Z,0.10
2023-01-22T08:36:50.260Z,0.14
2023-01-22T08:39:52.091Z,0.21
2023-01-22T08:42:54.804Z,0.21
2023-01-22T08:45:57.802Z,0.26
2023-01-22T08:48:59.668Z,0.27
2023-01-22T08:52:01.433Z,0.39
2023-01-22T08:55:05.306Z,0.48
2023-01-22T08:58:07.252Z,0.60
2023-01-22T09:01:16.826Z,0.64
2023-01-22T09:04:19.845Z,0.72
2023-01-22T09:07:21.779Z,0.87
2023-01-22T09:10:23.711Z,0.75
2023-01-22T09:13:25.505Z,0.72
2023-01-22T09:16:28.636Z,0.65
2023-01-22T09:19:30.326Z,0.75
2023-01-22T09:22:32.050Z,0.90
2023-01-22T09:25:33.797Z,0.73
2023-01-22T09:28:36.226Z,0.92
2023-01-22T09:31:39.568Z,1.04
2023-01-22T09:34:41.289Z,1.06
2023-01-22T09:37:42.991Z,1.07
2023-01-22T09:40:48.514Z,1.10
2023-01-22T09:43:53.765Z,1.26
2023-01-22T09:46:58.561Z,1.37
2023-01-22T09:50:05.610Z,1.49
2023-01-22T09:53:12.840Z,1.51
2023-01-22T09:56:20.962Z,1.78
2023-01-22T09:59:25.915Z,1.79
2023-01-22T10:02:35.358Z,1.64
2023-01-22T10:05:41.010Z,1.95
2023-01-22T10:08:51.948Z,1.96
2023-01-22T10:11:55.742Z,1.83
2023-01-22T10:14:57.532Z,1.82
2023-01-22T10:18:02.193Z,1.83
2023-01-22T10:21:11.052Z,1.90
2023-01-22T10:24:13.262Z,1.94
2023-01-22T10:27:16.919Z,1.88
2023-01-22T10:30:22.220Z,1.85
2023-01-22T10:33:27.355Z,1.94
2023-01-22T10:36:30.835Z,2.12
2023-01-22T10:39:39.342Z,2.14
2023-01-22T10:42:41.001Z,2.19
2023-01-22T10:45:52.181Z,1.56
2023-01-22T10:49:03.197Z,1.50
2023-01-22T10:52:17.568Z,1.47
2023-01-22T10:55:22.911Z,1.73
2023-01-22T10:58:30.953Z,1.67
2023-01-22T11:01:36.063Z,1.90
2023-01-22T11:04:39.167Z,1.41
2023-01-22T11:07:42.875Z,1.26
2023-01-22T11:10:48.030Z,1.38
2023-01-22T11:13:54.919Z,1.46
2023-01-22T11:17:02.017Z,1.73
2023-01-22T11:20:15.868Z,1.94
2023-01-22T11:23:35.629Z,1.98
2023-01-22T11:26:50.915Z,2.03
2023-01-22T11:30:08.022Z,2.02
2023-01-22T11:33:22.108Z,2.10
2023-01-22T11:36:33.422Z,1.90
2023-01-22T11:39:50.324Z,1.82
2023-01-22T11:43:09.027Z,1.85
2023-01-22T11:46:25.791Z,1.85
2023-01-22T11:49:39.689Z,1.94
2023-01-22T11:52:48.609Z,2.00
2023-01-22T11:56:06.024Z,1.90
2023-01-22T12:07:07.734Z,2.10
2023-01-22T12:10:50.413Z,2.00
2023-01-22T12:14:21.819Z,2.02
2023-01-22T12:17:39.757Z,2.00
2023-01-22T12:20:58.169Z,2.04
2023-01-22T12:24:19.457Z,2.11
2023-01-22T12:27:28.607Z,2.06
2023-01-22T12:30:43.554Z,2.23
2023-01-22T12:33:46.153Z,2.22
2023-01-22T12:36:55.332Z,2.27
2023-01-22T12:40:22.201Z,2.26
2023-01-22T12:43:33.372Z,2.05
2023-01-22T12:46:51.243Z,2.12
2023-01-22T12:50:02.860Z,2.01
2023-01-22T12:53:28.965Z,1.94
2023-01-22T12:56:33.156Z,2.01
2023-01-22T13:03:59.734Z,2.01
2023-01-22T13:07:33.919Z,1.98
2023-01-22T13:10:36.751Z,2.16
2023-01-22T13:13:45.131Z,2.02
2023-01-22T13:16:53.122Z,2.15
2023-01-22T13:19:55.073Z,1.98
2023-01-22T13:22:58.328Z,1.97
2023-01-22T13:26:00.427Z,2.14
2023-01-22T13:29:17.436Z,2.12
2023-01-22T13:32:21.144Z,2.05
2023-01-22T13:35:22.823Z,1.96
2023-01-22T13:38:27.518Z,2.02
2023-01-22T13:41:51.077Z,2.03
2023-01-22T13:44:56.429Z,2.06
2023-01-22T13:47:59.707Z,2.06
2023-01-22T13:51:21.681Z,2.06
2023-01-22T13:54:29.748Z,1.91
2023-01-22T14:02:58.429Z,1.87
2023-01-22T14:06:06.238Z,1.96
2023-01-22T14:09:08.465Z,1.90
2023-01-22T14:12:16.480Z,1.90
2023-01-22T14:15:20.959Z,1.92
2023-01-22T14:18:24.373Z,1.96
2023-01-22T14:21:26.782Z,1.90
2023-01-22T14:24:28.611Z,1.86
2023-01-22T14:27:40.036Z,1.94
2023-01-22T14:30:41.897Z,1.81
2023-01-22T14:33:45.082Z,1.89
2023-01-22T14:36:48.320Z,1.80
2023-01-22T14:39:50.285Z,1.74
2023-01-22T14:42:52.683Z,1.72
2023-01-22T14:45:55.065Z,1.76
2023-01-22T14:49:01.715Z,1.69
2023-01-22T14:52:18.730Z,1.72
2023-01-22T14:55:21.083Z,1.75
2023-01-22T14:58:22.958Z,1.73
2023-01-22T15:01:24.819Z,1.67
2023-01-22T15:04:28.430Z,1.77
2023-01-22T15:07:30.448Z,1.69
2023-01-22T15:10:32.125Z,1.69
2023-01-22T15:13:34.178Z,1.78
2023-01-22T15:16:38.250Z,1.72
2023-01-22T15:19:41.962Z,1.72
2023-01-22T15:22:46.849Z,1.72
2023-01-22T15:25:56.464Z,1.71
2023-01-22T15:28:58.276Z,1.65
2023-01-22T15:32:00.118Z,1.67
2023-01-22T15:35:03.470Z,1.67
2023-01-22T15:41:27.412Z,1.64
2023-01-22T15:44:29.138Z,1.68
2023-01-22T15:47:30.834Z,1.70
2023-01-22T15:50:35.137Z,1.67
2023-01-22T15:53:37.130Z,1.65
2023-01-22T15:56:39.025Z,1.66
2023-01-22T15:59:42.000Z,1.59
2023-01-22T16:02:44.637Z,1.58
2023-01-22T16:05:48.330Z,1.61
2023-01-22T16:08:51.524Z,1.54
2023-01-22T16:11:53.256Z,1.45
2023-01-22T16:14:54.887Z,1.52
2023-01-22T16:17:56.668Z,1.54
2023-01-22T16:21:01.996Z,1.56
2023-01-22T16:24:03.802Z,1.54
2023-01-22T16:27:05.476Z,1.47
2023-01-22T16:30:10.208Z,1.45
2023-01-22T16:33:19.027Z,1.44
2023-01-22T16:36:23.980Z,1.52
2023-01-22T16:39:26.656Z,1.55
2023-01-22T16:42:28.353Z,1.52
2023-01-22T16:45:30.123Z,1.43
2023-01-22T16:48:31.866Z,1.34
2023-01-22T16:51:36.844Z,1.37
2023-01-22T16:54:39.031Z,1.40
2023-01-22T16:57:40.924Z,1.34
2023-01-22T17:00:42.695Z,1.34
2023-01-22T17:03:44.510Z,1.33
2023-01-22T17:06:49.525Z,1.31
2023-01-22T17:09:51.264Z,1.37
2023-01-22T17:12:52.870Z,1.39
2023-01-22T17:15:54.667Z,1.37
2023-01-22T17:18:58.922Z,1.34
2023-01-22T17:22:03.134Z,1.44
2023-01-22T17:25:05.904Z,1.45
2023-01-22T17:28:08.825Z,1.48
2023-01-22T17:31:12.580Z,1.44
2023-01-22T17:34:14.839Z,1.55
2023-01-22T17:37:17.946Z,1.53
2023-01-22T17:40:19.923Z,1.54
2023-01-22T17:43:21.579Z,1.49
2023-01-22T17:46:28.721Z,1.51
2023-01-22T17:49:31.637Z,1.51
2023-01-22T17:52:34.672Z,1.50
2023-01-22T17:55:37.949Z,1.55
2023-01-22T17:58:41.838Z,1.48
2023-01-22T18:01:45.065Z,1.51
2023-01-22T18:04:47.077Z,1.48
2023-01-22T18:07:50.287Z,1.47
2023-01-22T18:10:52.886Z,1.48
2023-01-22T18:13:55.767Z,1.48
2023-01-22T18:16:57.458Z,1.46
2023-01-22T18:19:59.181Z,1.41
2023-01-22T18:23:02.285Z,1.38
2023-01-22T18:26:05.943Z,1.44
2023-01-22T18:29:08.163Z,1.47
2023-01-22T18:32:09.996Z,1.48
2023-01-22T18:35:11.800Z,1.49
2023-01-22T18:38:15.028Z,1.51
2023-01-22T18:41:19.628Z,1.51
2023-01-22T18:44:22.609Z,1.50
2023-01-22T18:47:24.458Z,1.46
2023-01-22T18:50:26.727Z,1.44
2023-01-22T18:53:30.855Z,1.39
2023-01-22T18:56:33.047Z,1.48
2023-01-22T18:59:34.683Z,1.55
2023-01-22T19:02:36.505Z,1.50
2023-01-22T19:05:39.587Z,1.38
2023-01-22T19:08:45.615Z,1.34
2023-01-22T19:11:49.098Z,1.41
2023-01-22T19:14:50.973Z,1.38
2023-01-22T19:17:52.640Z,1.26
2023-01-22T19:20:54.378Z,1.35
2023-01-22T19:23:59.597Z,1.25
2023-01-22T19:27:01.337Z,1.32
2023-01-22T19:30:03.440Z,1.39
2023-01-22T19:33:05.117Z,1.33
2023-01-22T19:36:07.650Z,1.40
2023-01-22T19:39:13.162Z,1.38
2023-01-22T19:42:15.812Z,1.34
2023-01-22T19:45:18.069Z,1.25
2023-01-22T19:48:21.201Z,1.29
2023-01-22T19:51:24.593Z,1.19
2023-01-22T19:54:27.874Z,1.26
2023-01-22T19:57:30.175Z,1.27
2023-01-22T20:00:32.404Z,1.24
2023-01-22T20:03:34.120Z,1.24
2023-01-22T20:06:35.867Z,1.26
2023-01-22T20:09:39.027Z,1.39
2023-01-22T20:12:41.429Z,1.44
2023-01-22T20:15:43.126Z,1.51
2023-01-22T20:18:45.067Z,1.39
2023-01-22T20:21:46.793Z,1.35
2023-01-22T20:24:49.877Z,1.44
2023-01-22T20:27:51.804Z,1.25
2023-01-22T20:34:19.732Z,1.18
2023-01-22T20:37:21.587Z,1.07
2023-01-22T20:40:25.577Z,1.06
2023-01-22T20:43:27.864Z,1.12
2023-01-22T20:46:29.651Z,1.04
2023-01-22T20:49:33.237Z,1.07
2023-01-22T20:52:35.015Z,1.09
2023-01-22T20:55:38.571Z,1.16
2023-01-22T20:58:40.484Z,1.18
2023-01-22T21:01:42.354Z,1.23
2023-01-22T21:04:44.443Z,1.23
2023-01-22T21:07:46.412Z,1.29
2023-01-22T21:10:57.363Z,1.19
2023-01-22T21:14:00.449Z,1.08
2023-01-22T21:17:02.299Z,1.00
2023-01-22T21:20:06.145Z,0.94
2023-01-22T21:23:07.852Z,0.94
2023-01-22T21:26:13.543Z,0.90
2023-01-22T21:29:17.149Z,0.90
2023-01-22T21:32:20.012Z,0.82
2023-01-22T21:35:21.976Z,0.86
2023-01-22T21:38:23.771Z,0.83
2023-01-22T21:41:27.251Z,0.90
2023-01-22T21:44:47.845Z,0.88
2023-01-22T21:47:49.656Z,0.81
2023-01-22T21:50:51.493Z,0.91
2023-01-22T21:53:54.039Z,0.97
2023-01-22T21:56:57.358Z,0.84
2023-01-22T21:59:59.078Z,0.93
2023-01-22T22:03:00.767Z,1.01
2023-01-22T22:06:02.708Z,0.86
2023-01-22T22:09:08.554Z,0.92
2023-01-22T22:12:12.047Z,0.91
2023-01-22T22:15:13.889Z,0.91
2023-01-22T22:18:15.708Z,0.88
2023-01-22T22:21:17.479Z,0.85
2023-01-22T22:24:20.167Z,0.74
2023-01-22T22:27:23.440Z,0.76
2023-01-22T22:30:25.296Z,0.74
2023-01-22T22:33:27.396Z,0.66
2023-01-22T22:36:31.145Z,0.62
2023-01-22T22:39:33.146Z,0.66
2023-01-22T22:42:36.494Z,0.81
2023-01-22T22:45:38.684Z,0.79
2023-01-22T22:48:40.803Z,0.74
2023-01-22T22:51:43.959Z,0.69
2023-01-22T22:54:45.827Z,0.68
2023-01-22T22:57:49.575Z,0.65
2023-01-22T23:00:51.273Z,0.67
2023-01-22T23:03:53.832Z,0.63
2023-01-22T23:06:55.769Z,0.61
2023-01-22T23:09:57.683Z,0.50
2023-01-22T23:13:02.394Z,0.43
2023-01-22T23:16:06.400Z,0.45
2023-01-22T23:19:15.710Z,0.49
2023-01-22T23:22:17.705Z,0.40
2023-01-22T23:25:19.508Z,0.36
2023-01-22T23:28:22.669Z,0.24
2023-01-22T23:31:26.077Z,0.20
2023-01-22T23:34:27.786Z,0.29
2023-01-22T23:37:29.662Z,0.19
2023-01-22T23:40:33.670Z,0.20
2023-01-22T23:43:36.912Z,0.22
2023-01-22T23:46:38.882Z,0.19
2023-01-22T23:49:41.031Z,0.19
2023-01-22T23:52:43.903Z,0.20
2023-01-22T23:55:45.892Z,0.24
2023-01-22T23:58:49.706Z,0.28
